Aviation Digital Data Service (ADDS)

Output produced by METARs form (1428 UTC 21 August 2019)
found at http://www.aviationweather.gov/metar/data/
 
Forecast for: ZLXY (XIANYANG , CN)
Text: TAF ZLXY 210905Z 2112/2212 06003MPS 4000 BR OVC050 TX28/2209Z TN21/2122Z
Forecast period: 1200 to 2000 UTC 21 August 2019
Forecast type: FROM: standard forecast or significant change
Winds: from the ENE (60 degrees) at 7 MPH (6 knots; 3.1 m/s)
Visibility: 2.49 miles (4.01 km)
Ceiling: 5000 feet AGL
Clouds: overcast cloud deck at 5000 feet AGL
Weather: BR  (mist)
Text: BECMG 2120/2121 2800 -RA BR
Forecast period: 2000 UTC 21 August 2019 to 0000 UTC 22 August 2019
Forecast type: BECOMING: Conditions expected to become as follows by 2100 UTC 21 August 2019
Winds: from the ENE (60 degrees) at 7 MPH (6 knots; 3.1 m/s)
Visibility: 1.74 miles (2.80 km)
Ceiling: 5000 feet AGL
Clouds: overcast cloud deck at 5000 feet AGL
Weather: -RA BR  (light rain, mist)
Text: BECMG 2200/2201 4000 BR
Forecast period: 0000 to 1200 UTC 22 August 2019
Forecast type: BECOMING: Conditions expected to become as follows by 0100 UTC 22 August 2019
Winds: from the ENE (60 degrees) at 7 MPH (6 knots; 3.1 m/s)
Visibility: 2.49 miles (4.01 km)
Ceiling: 5000 feet AGL
Clouds: overcast cloud deck at 5000 feet AGL
Weather: BR  (mist)